createdAt,value
2019-03-17T00:00:36.404Z,15.07
2019-03-17T00:03:05.048Z,14.37
2019-03-17T00:05:33.644Z,14.70
2019-03-17T00:08:02.220Z,17.17
2019-03-17T00:10:32.227Z,16.10
2019-03-17T00:13:00.981Z,17.20
2019-03-17T00:15:29.616Z,19.83
2019-03-17T00:17:59.536Z,16.93
2019-03-17T00:20:28.058Z,17.27
2019-03-17T00:22:56.659Z,16.83
2019-03-17T00:25:25.204Z,15.30
2019-03-17T00:27:53.964Z,17.63
2019-03-17T00:30:22.499Z,15.73
2019-03-17T00:32:51.407Z,17.10
2019-03-17T00:35:19.966Z,16.43
2019-03-17T00:37:48.679Z,13.50
2019-03-17T00:40:21.044Z,16.17
2019-03-17T00:42:50.995Z,12.60
2019-03-17T00:45:20.698Z,17.23
2019-03-17T00:47:50.932Z,14.60
2019-03-17T00:50:19.693Z,14.67
2019-03-17T00:52:48.482Z,14.13
2019-03-17T00:55:17.808Z,11.57
2019-03-17T00:57:48.336Z,15.57
2019-03-17T01:00:17.013Z,14.53
2019-03-17T01:02:45.620Z,12.80
2019-03-17T01:05:14.283Z,15.93
2019-03-17T01:07:43.379Z,16.43
2019-03-17T01:10:12.076Z,15.10
2019-03-17T01:12:40.670Z,12.67
2019-03-17T01:15:09.304Z,14.50
2019-03-17T01:17:37.819Z,13.33
2019-03-17T01:20:10.569Z,11.33
2019-03-17T01:22:39.251Z,13.17
2019-03-17T01:25:09.298Z,12.63
2019-03-17T01:27:40.829Z,13.27
2019-03-17T01:30:11.479Z,10.57
2019-03-17T01:32:42.140Z,12.53
2019-03-17T01:35:10.705Z,14.90
2019-03-17T01:37:41.319Z,11.10
2019-03-17T01:40:11.364Z,13.33
2019-03-17T01:42:40.057Z,9.63
2019-03-17T01:45:09.724Z,12.50
2019-03-17T01:47:39.800Z,10.73
2019-03-17T01:50:09.551Z,12.83
2019-03-17T01:52:38.230Z,10.93
2019-03-17T01:55:07.271Z,9.87
2019-03-17T01:57:35.859Z,8.90
2019-03-17T02:00:05.700Z,10.67
2019-03-17T02:02:36.247Z,11.37
2019-03-17T02:05:06.467Z,8.47
2019-03-17T02:07:35.021Z,8.37
2019-03-17T02:10:04.670Z,8.53
2019-03-17T02:12:33.220Z,8.30
2019-03-17T02:15:01.730Z,9.60
2019-03-17T02:17:30.421Z,7.67
2019-03-17T02:19:58.999Z,7.50
2019-03-17T02:22:27.598Z,7.93
2019-03-17T02:24:56.140Z,9.67
2019-03-17T02:27:24.676Z,8.80
2019-03-17T02:29:53.146Z,8.03
2019-03-17T02:32:23.217Z,9.30
2019-03-17T02:34:52.033Z,9.13
2019-03-17T02:37:20.510Z,8.10
2019-03-17T02:39:50.370Z,8.30
2019-03-17T02:42:23.226Z,7.37
2019-03-17T02:44:54.052Z,7.13
2019-03-17T02:47:22.526Z,7.87
2019-03-17T02:49:51.788Z,9.47
2019-03-17T02:52:20.467Z,7.40
2019-03-17T02:54:53.180Z,6.53
2019-03-17T02:57:28.772Z,7.37
2019-03-17T02:59:55.922Z,8.43
2019-03-17T03:02:25.057Z,9.20
2019-03-17T03:04:53.946Z,9.07
2019-03-17T03:07:22.736Z,7.57
2019-03-17T03:09:51.538Z,6.90
2019-03-17T03:12:20.571Z,6.83
2019-03-17T03:14:49.250Z,8.20
2019-03-17T03:17:17.807Z,8.87
2019-03-17T03:19:47.667Z,6.43
2019-03-17T03:22:18.565Z,8.03
2019-03-17T03:24:47.470Z,6.80
2019-03-17T03:27:16.282Z,6.90
2019-03-17T03:29:44.839Z,10.27
2019-03-17T03:32:13.683Z,6.10
2019-03-17T03:34:42.446Z,5.50
2019-03-17T03:37:11.010Z,10.10
2019-03-17T03:39:39.820Z,7.43
2019-03-17T03:42:08.580Z,8.00
2019-03-17T03:44:37.155Z,6.90
2019-03-17T03:47:05.861Z,5.80
2019-03-17T03:49:34.773Z,7.73
2019-03-17T03:52:03.390Z,7.60
2019-03-17T03:54:32.193Z,9.97
2019-03-17T03:57:00.866Z,5.53
2019-03-17T03:59:50.467Z,9.00
2019-03-17T04:02:19.061Z,5.90
2019-03-17T04:04:48.345Z,6.07
2019-03-17T04:07:16.911Z,7.17
2019-03-17T04:09:45.480Z,7.30
2019-03-17T04:12:14.086Z,5.60
2019-03-17T04:14:42.764Z,7.27
2019-03-17T04:17:11.323Z,7.33
2019-03-17T04:19:39.882Z,6.50
2019-03-17T04:22:09.328Z,5.50
2019-03-17T04:24:37.903Z,5.03
2019-03-17T04:27:06.766Z,6.80
2019-03-17T04:29:35.301Z,5.97
2019-03-17T04:32:03.903Z,5.57
2019-03-17T04:34:32.771Z,4.77
2019-03-17T04:37:01.370Z,7.07
2019-03-17T04:39:29.936Z,7.27
2019-03-17T04:41:58.496Z,12.10
2019-03-17T04:44:27.052Z,6.43
2019-03-17T04:46:55.579Z,5.77
2019-03-17T04:49:24.445Z,6.77
2019-03-17T04:51:53.155Z,6.30
2019-03-17T04:54:21.703Z,5.73
2019-03-17T04:56:50.221Z,5.80
2019-03-17T04:59:19.152Z,7.20
2019-03-17T05:01:47.835Z,3.73
2019-03-17T05:04:17.862Z,4.13
2019-03-17T05:06:52.731Z,6.40
2019-03-17T05:09:16.609Z,3.93
2019-03-17T05:11:45.348Z,10.83
2019-03-17T05:14:14.185Z,7.43
2019-03-17T05:16:43.002Z,8.80
2019-03-17T05:19:11.649Z,9.60
2019-03-17T05:21:40.285Z,5.33
2019-03-17T05:24:08.992Z,7.43
2019-03-17T05:26:37.612Z,8.17
2019-03-17T05:29:06.407Z,5.37
2019-03-17T05:31:35.012Z,6.60
2019-03-17T05:34:03.788Z,7.67
2019-03-17T05:36:32.403Z,9.30
2019-03-17T05:39:01.005Z,7.67
2019-03-17T05:41:29.521Z,6.90
2019-03-17T05:43:59.225Z,6.77
2019-03-17T05:46:27.745Z,7.43
2019-03-17T05:48:57.789Z,9.10
2019-03-17T05:51:26.751Z,7.77
2019-03-17T05:53:57.618Z,7.57
2019-03-17T05:56:26.269Z,7.47
2019-03-17T05:58:55.032Z,10.03
2019-03-17T06:01:23.512Z,8.70
2019-03-17T06:03:52.344Z,16.00
2019-03-17T06:06:21.054Z,15.63
2019-03-17T06:08:49.701Z,10.40
2019-03-17T06:11:18.332Z,14.83
2019-03-17T06:13:46.846Z,11.70
2019-03-17T06:16:15.400Z,10.60
2019-03-17T06:18:44.069Z,10.03
2019-03-17T06:21:12.890Z,11.20
2019-03-17T06:23:41.580Z,10.20
2019-03-17T06:26:10.485Z,11.67
2019-03-17T06:28:39.015Z,12.57
2019-03-17T06:31:07.645Z,11.10
2019-03-17T06:33:36.210Z,10.03
2019-03-17T06:36:05.174Z,11.97
2019-03-17T06:38:41.356Z,8.83
2019-03-17T06:41:11.096Z,7.57
2019-03-17T06:43:43.111Z,10.47
2019-03-17T06:46:12.858Z,8.60
2019-03-17T06:48:46.351Z,10.00
2019-03-17T06:51:21.004Z,10.97
2019-03-17T06:53:56.680Z,6.70
2019-03-17T06:56:31.153Z,6.43
2019-03-17T06:58:59.872Z,6.27
2019-03-17T07:01:28.517Z,8.10
2019-03-17T07:03:58.916Z,5.80
2019-03-17T07:06:27.790Z,8.20
2019-03-17T07:08:57.820Z,6.83
2019-03-17T07:11:26.913Z,5.60
2019-03-17T07:13:55.866Z,9.37
2019-03-17T07:16:26.396Z,9.30
2019-03-17T07:18:55.115Z,6.80
2019-03-17T07:21:24.978Z,6.43
2019-03-17T07:23:53.485Z,6.60
2019-03-17T07:26:22.611Z,8.03
2019-03-17T07:28:52.221Z,8.13
2019-03-17T07:31:22.204Z,7.27
2019-03-17T07:33:51.757Z,9.67
2019-03-17T07:36:22.068Z,6.70
2019-03-17T07:38:51.083Z,7.90
2019-03-17T07:41:19.768Z,9.97
2019-03-17T07:43:51.416Z,6.63
2019-03-17T07:46:19.969Z,9.13
2019-03-17T07:48:52.075Z,7.23
2019-03-17T07:51:22.503Z,5.73
2019-03-17T07:53:51.241Z,8.20
2019-03-17T07:56:22.883Z,7.97
2019-03-17T07:58:51.693Z,5.13
2019-03-17T08:01:20.575Z,5.90
2019-03-17T08:03:49.028Z,6.57
2019-03-17T08:06:17.589Z,4.37
2019-03-17T08:08:46.142Z,4.07
2019-03-17T08:11:15.892Z,8.77
2019-03-17T08:14:00.109Z,5.90
2019-03-17T08:16:51.320Z,6.57
2019-03-17T08:19:26.733Z,5.43
2019-03-17T08:21:55.442Z,4.77
2019-03-17T08:28:13.596Z,9.10
2019-03-17T08:30:38.101Z,9.97
2019-03-17T08:33:07.337Z,4.13
2019-03-17T08:35:36.245Z,4.27
2019-03-17T08:38:04.826Z,7.50
2019-03-17T08:40:34.640Z,5.77
2019-03-17T08:43:03.273Z,5.17
2019-03-17T08:45:33.863Z,5.27
2019-03-17T08:48:02.398Z,4.13
2019-03-17T08:50:30.960Z,6.60
2019-03-17T08:52:59.445Z,4.60
2019-03-17T08:55:28.622Z,5.43
2019-03-17T08:57:57.168Z,3.43
2019-03-17T09:00:25.757Z,3.60
2019-03-17T09:02:54.393Z,4.20
2019-03-17T09:05:22.900Z,3.27
2019-03-17T09:07:51.630Z,3.70
2019-03-17T09:10:21.998Z,3.97
2019-03-17T09:12:50.824Z,3.10
2019-03-17T09:15:22.581Z,3.73
2019-03-17T09:17:52.840Z,4.27
2019-03-17T09:20:24.696Z,3.17
2019-03-17T09:22:57.476Z,5.03
2019-03-17T09:25:26.836Z,3.83
2019-03-17T09:27:55.332Z,3.47
2019-03-17T09:30:23.933Z,2.67
2019-03-17T09:32:53.939Z,3.00
2019-03-17T09:35:25.815Z,3.00
2019-03-17T09:37:54.309Z,3.47
2019-03-17T09:40:23.071Z,2.43
2019-03-17T09:42:53.063Z,5.00
2019-03-17T09:45:23.397Z,2.97
2019-03-17T09:47:53.403Z,3.47
2019-03-17T09:50:22.403Z,2.20
2019-03-17T09:52:51.805Z,3.83
2019-03-17T09:55:24.600Z,3.57
2019-03-17T09:57:53.282Z,2.93
2019-03-17T10:00:24.018Z,2.73
2019-03-17T10:02:52.534Z,4.37
2019-03-17T10:05:25.428Z,7.20
2019-03-17T10:07:55.115Z,3.07
2019-03-17T10:10:24.189Z,3.83
2019-03-17T10:12:52.774Z,4.27
2019-03-17T10:15:21.523Z,3.17
2019-03-17T10:17:50.328Z,3.17
2019-03-17T10:20:19.886Z,3.33
2019-03-17T10:22:50.948Z,4.73
2019-03-17T10:25:24.242Z,2.73
2019-03-17T10:27:56.419Z,5.07
2019-03-17T10:30:26.264Z,3.00
2019-03-17T10:32:54.988Z,3.37
2019-03-17T10:35:24.419Z,3.57
2019-03-17T10:37:54.855Z,3.87
2019-03-17T10:40:23.690Z,2.77
2019-03-17T10:42:53.301Z,3.43
2019-03-17T10:45:22.832Z,2.50
2019-03-17T10:47:54.564Z,3.13
2019-03-17T10:50:22.932Z,2.47
2019-03-17T10:52:52.429Z,4.27
2019-03-17T10:55:21.647Z,4.80
2019-03-17T10:57:50.482Z,5.27
2019-03-17T11:00:20.425Z,4.03
2019-03-17T11:02:49.204Z,2.60
2019-03-17T11:05:17.775Z,3.70
2019-03-17T11:07:47.873Z,3.80
2019-03-17T11:10:16.504Z,2.90
2019-03-17T11:12:45.036Z,3.00
2019-03-17T11:15:19.511Z,3.50
2019-03-17T11:17:48.083Z,2.43
2019-03-17T11:20:16.561Z,3.10
2019-03-17T11:22:45.089Z,3.80
2019-03-17T11:25:15.814Z,3.90
2019-03-17T11:27:44.369Z,2.77
2019-03-17T11:30:20.267Z,8.20
2019-03-17T11:32:53.721Z,6.37
2019-03-17T11:35:22.229Z,3.90
2019-03-17T11:37:52.785Z,3.10
2019-03-17T11:40:23.589Z,2.60
2019-03-17T11:42:52.741Z,3.13
2019-03-17T11:45:21.511Z,3.70
2019-03-17T11:47:50.447Z,6.13
2019-03-17T11:50:20.683Z,3.47
2019-03-17T11:53:01.577Z,3.30
2019-03-17T11:55:34.980Z,3.67
2019-03-17T11:58:06.795Z,2.90
2019-03-17T12:00:38.278Z,6.87
2019-03-17T12:03:06.737Z,3.40
2019-03-17T12:05:36.947Z,4.57
2019-03-17T12:08:05.536Z,4.53
2019-03-17T12:10:34.067Z,3.87
2019-03-17T12:13:02.700Z,2.40
2019-03-17T12:15:33.027Z,8.33
2019-03-17T12:18:01.537Z,4.97
2019-03-17T12:20:30.135Z,6.03
2019-03-17T12:22:58.617Z,3.30
2019-03-17T12:25:27.151Z,4.43
2019-03-17T12:27:55.706Z,4.77
2019-03-17T12:30:26.480Z,3.70
2019-03-17T12:32:55.211Z,3.83
2019-03-17T12:35:23.801Z,2.40
2019-03-17T12:37:52.455Z,3.03
2019-03-17T12:40:20.978Z,4.33
2019-03-17T12:42:49.532Z,4.23
2019-03-17T12:45:18.204Z,3.43
2019-03-17T12:47:46.946Z,2.13
2019-03-17T12:50:17.259Z,3.77
2019-03-17T12:52:45.934Z,3.23
2019-03-17T12:55:14.732Z,2.83
2019-03-17T12:57:43.302Z,2.63
2019-03-17T13:00:14.783Z,2.57
2019-03-17T13:02:44.043Z,2.93
2019-03-17T13:05:12.674Z,4.70
2019-03-17T13:07:41.213Z,3.70
2019-03-17T13:10:16.304Z,3.73
2019-03-17T13:12:44.986Z,2.57
2019-03-17T13:15:13.531Z,4.47
2019-03-17T13:17:42.071Z,3.43
2019-03-17T13:20:15.584Z,8.37
2019-03-17T13:22:44.191Z,4.60
2019-03-17T13:25:12.919Z,3.00
2019-03-17T13:27:41.499Z,4.73
2019-03-17T13:30:17.611Z,3.20
2019-03-17T13:32:46.115Z,5.90
2019-03-17T13:35:14.864Z,4.80
2019-03-17T13:37:44.782Z,3.67
2019-03-17T13:40:27.727Z,5.90
2019-03-17T13:42:46.068Z,3.30
2019-03-17T13:45:16.397Z,5.53
2019-03-17T13:47:46.086Z,2.83
2019-03-17T13:50:22.041Z,5.47
2019-03-17T13:52:54.263Z,3.30
2019-03-17T13:55:22.892Z,2.27
2019-03-17T13:58:06.013Z,6.23
2019-03-17T14:00:37.631Z,4.60
2019-03-17T14:03:07.787Z,3.00
2019-03-17T14:05:36.865Z,8.03
2019-03-17T14:08:05.441Z,2.53
2019-03-17T14:10:41.101Z,4.30
2019-03-17T14:13:04.252Z,3.70
2019-03-17T14:15:32.865Z,8.13
2019-03-17T14:18:01.437Z,7.97
2019-03-17T14:20:29.984Z,11.60
2019-03-17T14:22:58.639Z,5.53
2019-03-17T14:25:28.511Z,9.23
2019-03-17T14:27:57.143Z,9.20
2019-03-17T14:30:25.671Z,6.97
2019-03-17T14:32:54.180Z,5.10
2019-03-17T14:35:23.109Z,3.63
2019-03-17T14:37:57.326Z,9.23
2019-03-17T14:40:30.722Z,5.20
2019-03-17T14:43:05.555Z,13.43
2019-03-17T14:45:35.875Z,11.23
2019-03-17T14:48:07.075Z,6.10
2019-03-17T14:50:38.554Z,7.40
2019-03-17T14:53:07.275Z,9.33
2019-03-17T14:55:37.531Z,6.43
2019-03-17T14:58:06.276Z,11.87
2019-03-17T15:00:34.998Z,9.77
2019-03-17T15:03:03.800Z,9.70
2019-03-17T15:05:32.821Z,10.90
2019-03-17T15:08:01.767Z,5.43
2019-03-17T15:10:30.636Z,11.13
2019-03-17T15:12:59.594Z,8.07
2019-03-17T15:15:28.738Z,5.87
2019-03-17T15:17:57.635Z,6.50
2019-03-17T15:20:27.606Z,4.93
2019-03-17T15:22:56.474Z,7.73
2019-03-17T15:25:25.454Z,9.03
2019-03-17T15:27:54.352Z,5.83
2019-03-17T15:30:25.179Z,4.97
2019-03-17T15:32:53.813Z,5.70
2019-03-17T15:35:22.661Z,8.07
2019-03-17T15:37:51.377Z,6.60
2019-03-17T15:40:21.241Z,4.97
2019-03-17T15:42:49.788Z,12.57
2019-03-17T15:45:23.379Z,3.47
2019-03-17T15:47:51.927Z,6.97
2019-03-17T15:50:21.865Z,8.27
2019-03-17T15:52:50.317Z,9.07
2019-03-17T15:55:18.796Z,8.43
2019-03-17T15:57:47.347Z,7.90
2019-03-17T16:00:26.365Z,8.00
2019-03-17T16:02:53.868Z,5.27
2019-03-17T16:05:22.766Z,8.07
2019-03-17T16:07:51.736Z,6.50
2019-03-17T16:10:22.943Z,5.37
2019-03-17T16:12:51.544Z,12.27
2019-03-17T16:15:20.194Z,8.87
2019-03-17T16:17:48.812Z,6.13
2019-03-17T16:20:19.979Z,8.07
2019-03-17T16:22:48.911Z,5.90
2019-03-17T16:25:20.312Z,13.80
2019-03-17T16:27:55.366Z,8.33
2019-03-17T16:30:25.207Z,6.83
2019-03-17T16:32:54.104Z,5.30
2019-03-17T16:35:22.677Z,8.33
2019-03-17T16:37:51.635Z,5.87
2019-03-17T16:40:25.625Z,8.90
2019-03-17T16:42:54.419Z,7.60
2019-03-17T16:45:30.785Z,8.57
2019-03-17T16:47:59.350Z,7.40
2019-03-17T16:50:28.000Z,8.10
2019-03-17T16:52:56.943Z,9.97
2019-03-17T16:55:25.706Z,5.83
2019-03-17T16:57:54.568Z,9.50
2019-03-17T17:00:24.588Z,6.43
2019-03-17T17:02:53.218Z,4.63
2019-03-17T17:05:22.959Z,5.10
2019-03-17T17:07:51.575Z,6.53
2019-03-17T17:10:22.252Z,7.03
2019-03-17T17:12:51.123Z,4.53
2019-03-17T17:15:25.031Z,6.00
2019-03-17T17:17:53.730Z,4.20
2019-03-17T17:20:31.825Z,5.47
2019-03-17T17:23:02.097Z,2.37
2019-03-17T17:25:30.677Z,7.90
2019-03-17T17:27:59.397Z,3.43
